sensor_id;sensor_type;location;lat;lon;timestamp;pressure;altitude;pressure_sealevel;temperature;humidity
75008;BME280;63554;48.940;12.050;2022-12-24T00:00:29;96727.06;;;8.93;93.22
75008;BME280;63554;48.940;12.050;2022-12-24T00:04:32;96739.97;;;8.91;93.20
75008;BME280;63554;48.940;12.050;2022-12-24T00:08:35;96746.66;;;8.88;93.46
75008;BME280;63554;48.940;12.050;2022-12-24T00:12:39;96761.56;;;8.91;92.80
75008;BME280;63554;48.940;12.050;2022-12-24T00:16:41;96743.13;;;9.06;88.33
75008;BME280;63554;48.940;12.050;2022-12-24T00:20:45;96749.88;;;9.16;87.57
75008;BME280;63554;48.940;12.050;2022-12-24T00:24:48;96774.53;;;9.01;87.79
75008;BME280;63554;48.940;12.050;2022-12-24T00:28:52;96723.34;;;8.94;88.49
75008;BME280;63554;48.940;12.050;2022-12-24T00:32:55;96739.53;;;8.94;86.51
75008;BME280;63554;48.940;12.050;2022-12-24T00:36:57;96737.19;;;9.16;84.86
75008;BME280;63554;48.940;12.050;2022-12-24T00:41:00;96755.25;;;9.34;80.85
75008;BME280;63554;48.940;12.050;2022-12-24T00:45:06;96757.44;;;9.25;82.11
75008;BME280;63554;48.940;12.050;2022-12-24T00:49:09;96769.28;;;9.06;84.09
75008;BME280;63554;48.940;12.050;2022-12-24T00:53:12;96767.84;;;9.03;85.02
75008;BME280;63554;48.940;12.050;2022-12-24T00:57:15;96775.59;;;9.00;85.47
75008;BME280;63554;48.940;12.050;2022-12-24T01:01:19;96796.03;;;8.89;85.87
75008;BME280;63554;48.940;12.050;2022-12-24T01:05:22;96786.31;;;8.88;85.09
75008;BME280;63554;48.940;12.050;2022-12-24T01:09:25;96786.75;;;8.85;84.96
75008;BME280;63554;48.940;12.050;2022-12-24T01:13:28;96790.72;;;8.82;83.94
75008;BME280;63554;48.940;12.050;2022-12-24T01:17:32;96782.84;;;8.81;84.45
75008;BME280;63554;48.940;12.050;2022-12-24T01:21:35;96765.06;;;8.73;83.97
75008;BME280;63554;48.940;12.050;2022-12-24T01:25:38;96784.13;;;8.78;83.25
75008;BME280;63554;48.940;12.050;2022-12-24T01:29:41;96795.78;;;8.72;83.19
75008;BME280;63554;48.940;12.050;2022-12-24T01:33:45;96815.13;;;8.69;83.53
75008;BME280;63554;48.940;12.050;2022-12-24T01:37:48;96814.78;;;8.59;82.79
75008;BME280;63554;48.940;12.050;2022-12-24T01:41:51;96833.50;;;8.54;83.68
75008;BME280;63554;48.940;12.050;2022-12-24T01:46:14;96840.78;;;8.46;84.12
75008;BME280;63554;48.940;12.050;2022-12-24T01:50:19;96852.66;;;8.45;84.20
75008;BME280;63554;48.940;12.050;2022-12-24T01:54:24;96860.28;;;8.48;83.77
75008;BME280;63554;48.940;12.050;2022-12-24T01:58:31;96863.56;;;8.57;83.86
75008;BME280;63554;48.940;12.050;2022-12-24T02:02:36;96860.53;;;8.40;84.67
75008;BME280;63554;48.940;12.050;2022-12-24T02:06:43;96869.28;;;8.29;85.28
75008;BME280;63554;48.940;12.050;2022-12-24T02:10:46;96860.47;;;8.15;85.12
75008;BME280;63554;48.940;12.050;2022-12-24T02:14:49;96859.84;;;8.20;84.36
75008;BME280;63554;48.940;12.050;2022-12-24T02:18:57;96885.78;;;8.07;84.76
75008;BME280;63554;48.940;12.050;2022-12-24T02:23:14;96890.22;;;8.02;84.67
75008;BME280;63554;48.940;12.050;2022-12-24T02:27:30;96886.06;;;7.99;84.49
75008;BME280;63554;48.940;12.050;2022-12-24T02:31:38;96883.97;;;8.01;84.59
75008;BME280;63554;48.940;12.050;2022-12-24T02:35:47;96888.94;;;7.98;85.12
75008;BME280;63554;48.940;12.050;2022-12-24T02:39:55;96878.97;;;8.05;82.92
75008;BME280;63554;48.940;12.050;2022-12-24T02:44:00;96886.25;;;8.04;82.16
75008;BME280;63554;48.940;12.050;2022-12-24T02:48:05;96894.97;;;8.00;82.78
75008;BME280;63554;48.940;12.050;2022-12-24T02:52:27;96898.75;;;7.92;83.58
75008;BME280;63554;48.940;12.050;2022-12-24T02:56:49;96915.16;;;7.77;84.66
75008;BME280;63554;48.940;12.050;2022-12-24T03:01:01;96925.56;;;7.67;85.20
75008;BME280;63554;48.940;12.050;2022-12-24T03:05:26;96921.41;;;7.64;85.72
75008;BME280;63554;48.940;12.050;2022-12-24T03:09:36;96922.06;;;7.60;86.31
75008;BME280;63554;48.940;12.050;2022-12-24T03:13:41;96905.72;;;7.48;86.87
75008;BME280;63554;48.940;12.050;2022-12-24T03:17:46;96921.06;;;7.41;87.18
75008;BME280;63554;48.940;12.050;2022-12-24T03:21:53;96936.59;;;7.32;87.36
75008;BME280;63554;48.940;12.050;2022-12-24T03:25:59;96943.25;;;7.29;87.74
75008;BME280;63554;48.940;12.050;2022-12-24T03:30:07;96942.84;;;7.26;87.90
75008;BME280;63554;48.940;12.050;2022-12-24T03:34:11;96948.63;;;7.29;88.14
75008;BME280;63554;48.940;12.050;2022-12-24T03:38:15;96948.41;;;7.24;88.12
75008;BME280;63554;48.940;12.050;2022-12-24T03:42:18;96951.50;;;7.21;88.41
75008;BME280;63554;48.940;12.050;2022-12-24T03:46:20;96957.34;;;7.11;88.67
75008;BME280;63554;48.940;12.050;2022-12-24T03:50:23;96971.00;;;7.10;89.30
75008;BME280;63554;48.940;12.050;2022-12-24T03:54:27;96974.72;;;7.09;89.14
75008;BME280;63554;48.940;12.050;2022-12-24T03:58:30;96963.97;;;7.02;89.26
75008;BME280;63554;48.940;12.050;2022-12-24T04:02:33;96973.91;;;7.02;89.71
75008;BME280;63554;48.940;12.050;2022-12-24T04:06:35;96978.44;;;7.01;89.66
75008;BME280;63554;48.940;12.050;2022-12-24T04:10:39;96992.94;;;7.00;90.07
75008;BME280;63554;48.940;12.050;2022-12-24T04:14:42;96987.53;;;6.93;90.10
75008;BME280;63554;48.940;12.050;2022-12-24T04:18:45;97006.78;;;6.90;90.31
75008;BME280;63554;48.940;12.050;2022-12-24T04:22:47;97004.09;;;6.90;91.18
75008;BME280;63554;48.940;12.050;2022-12-24T04:26:51;97006.97;;;6.96;90.99
75008;BME280;63554;48.940;12.050;2022-12-24T04:30:57;97009.47;;;6.97;91.01
75008;BME280;63554;48.940;12.050;2022-12-24T04:34:59;97003.69;;;7.07;90.93
75008;BME280;63554;48.940;12.050;2022-12-24T04:39:02;97016.53;;;7.11;90.82
75008;BME280;63554;48.940;12.050;2022-12-24T04:43:06;97012.81;;;7.06;90.63
75008;BME280;63554;48.940;12.050;2022-12-24T04:47:09;97023.56;;;7.06;90.72
75008;BME280;63554;48.940;12.050;2022-12-24T04:51:13;97017.75;;;6.96;90.79
75008;BME280;63554;48.940;12.050;2022-12-24T04:55:16;97038.44;;;6.95;91.02
75008;BME280;63554;48.940;12.050;2022-12-24T04:59:20;97041.56;;;6.92;90.97
75008;BME280;63554;48.940;12.050;2022-12-24T05:03:22;97042.56;;;6.91;91.10
75008;BME280;63554;48.940;12.050;2022-12-24T05:07:25;97061.22;;;6.92;91.48
75008;BME280;63554;48.940;12.050;2022-12-24T05:11:29;97065.16;;;6.90;91.42
75008;BME280;63554;48.940;12.050;2022-12-24T05:15:33;97063.28;;;6.90;91.90
75008;BME280;63554;48.940;12.050;2022-12-24T05:19:36;97070.53;;;6.97;91.93
75008;BME280;63554;48.940;12.050;2022-12-24T05:23:38;97063.06;;;6.99;91.88
75008;BME280;63554;48.940;12.050;2022-12-24T05:27:59;97058.94;;;6.96;91.73
75008;BME280;63554;48.940;12.050;2022-12-24T05:32:03;97075.47;;;6.93;91.58
75008;BME280;63554;48.940;12.050;2022-12-24T05:36:07;97065.34;;;6.88;91.35
75008;BME280;63554;48.940;12.050;2022-12-24T05:40:10;97076.09;;;6.88;91.53
75008;BME280;63554;48.940;12.050;2022-12-24T05:44:13;97089.34;;;6.90;91.37
75008;BME280;63554;48.940;12.050;2022-12-24T05:48:18;97093.88;;;6.89;91.34
75008;BME280;63554;48.940;12.050;2022-12-24T05:52:20;97103.44;;;6.92;91.13
75008;BME280;63554;48.940;12.050;2022-12-24T05:56:24;97108.38;;;6.88;91.27
75008;BME280;63554;48.940;12.050;2022-12-24T06:00:26;97119.09;;;6.82;90.94
75008;BME280;63554;48.940;12.050;2022-12-24T06:04:31;97125.72;;;6.79;91.35
75008;BME280;63554;48.940;12.050;2022-12-24T06:08:35;97128.41;;;6.72;91.46
75008;BME280;63554;48.940;12.050;2022-12-24T06:12:38;97132.28;;;6.70;91.52
75008;BME280;63554;48.940;12.050;2022-12-24T06:16:41;97129.16;;;6.66;91.44
75008;BME280;63554;48.940;12.050;2022-12-24T06:20:45;97133.72;;;6.66;91.33
75008;BME280;63554;48.940;12.050;2022-12-24T06:24:47;97128.16;;;6.67;91.42
75008;BME280;63554;48.940;12.050;2022-12-24T06:28:50;97128.97;;;6.68;91.56
75008;BME280;63554;48.940;12.050;2022-12-24T06:32:53;97125.66;;;6.66;91.55
75008;BME280;63554;48.940;12.050;2022-12-24T06:36:57;97139.53;;;6.69;91.58
75008;BME280;63554;48.940;12.050;2022-12-24T06:41:04;97149.28;;;6.70;91.70
75008;BME280;63554;48.940;12.050;2022-12-24T06:45:07;97144.09;;;6.69;91.61
75008;BME280;63554;48.940;12.050;2022-12-24T06:49:10;97158.78;;;6.73;91.27
75008;BME280;63554;48.940;12.050;2022-12-24T06:53:14;97157.75;;;6.74;91.13
75008;BME280;63554;48.940;12.050;2022-12-24T06:57:17;97157.34;;;6.70;91.50
75008;BME280;63554;48.940;12.050;2022-12-24T07:01:20;97161.03;;;6.63;91.78
75008;BME280;63554;48.940;12.050;2022-12-24T07:05:25;97166.16;;;6.58;92.08
75008;BME280;63554;48.940;12.050;2022-12-24T07:09:30;97166.53;;;6.54;91.71
75008;BME280;63554;48.940;12.050;2022-12-24T07:13:32;97166.34;;;6.49;92.04
75008;BME280;63554;48.940;12.050;2022-12-24T07:17:35;97184.53;;;6.47;92.39
75008;BME280;63554;48.940;12.050;2022-12-24T07:21:38;97186.13;;;6.42;92.05
75008;BME280;63554;48.940;12.050;2022-12-24T07:25:42;97199.56;;;6.42;92.02
75008;BME280;63554;48.940;12.050;2022-12-24T07:29:45;97202.66;;;6.39;92.34
75008;BME280;63554;48.940;12.050;2022-12-24T07:33:48;97214.25;;;6.39;92.57
75008;BME280;63554;48.940;12.050;2022-12-24T07:37:51;97219.63;;;6.39;92.30
75008;BME280;63554;48.940;12.050;2022-12-24T07:41:55;97226.84;;;6.39;92.50
75008;BME280;63554;48.940;12.050;2022-12-24T07:45:58;97227.28;;;6.42;92.76
75008;BME280;63554;48.940;12.050;2022-12-24T07:50:01;97224.59;;;6.42;92.84
75008;BME280;63554;48.940;12.050;2022-12-24T07:54:03;97225.72;;;7.58;96.10
75008;BME280;63554;48.940;12.050;2022-12-24T07:58:07;97233.97;;;7.43;92.44
75008;BME280;63554;48.940;12.050;2022-12-24T08:02:10;97249.56;;;7.61;91.06
75008;BME280;63554;48.940;12.050;2022-12-24T08:06:19;97234.66;;;7.65;91.25
75008;BME280;63554;48.940;12.050;2022-12-24T08:10:21;97236.59;;;7.16;89.74
75008;BME280;63554;48.940;12.050;2022-12-24T08:14:25;97237.72;;;6.93;90.94
75008;BME280;63554;48.940;12.050;2022-12-24T08:18:28;97234.75;;;6.82;91.03
75008;BME280;63554;48.940;12.050;2022-12-24T08:22:31;97246.13;;;6.77;91.62
75008;BME280;63554;48.940;12.050;2022-12-24T08:26:33;97242.78;;;6.68;91.95
75008;BME280;63554;48.940;12.050;2022-12-24T08:30:38;97240.28;;;6.73;92.14
75008;BME280;63554;48.940;12.050;2022-12-24T08:34:40;97249.44;;;6.79;91.92
75008;BME280;63554;48.940;12.050;2022-12-24T08:38:43;97254.06;;;6.92;91.29
75008;BME280;63554;48.940;12.050;2022-12-24T08:42:46;97249.53;;;6.99;91.20
75008;BME280;63554;48.940;12.050;2022-12-24T08:46:50;97245.19;;;6.98;90.97
75008;BME280;63554;48.940;12.050;2022-12-24T08:50:53;97265.09;;;7.04;90.80
75008;BME280;63554;48.940;12.050;2022-12-24T08:54:55;97267.38;;;7.07;90.81
75008;BME280;63554;48.940;12.050;2022-12-24T08:58:58;97280.81;;;7.07;90.55
75008;BME280;63554;48.940;12.050;2022-12-24T09:03:02;97288.28;;;7.05;90.71
75008;BME280;63554;48.940;12.050;2022-12-24T09:07:05;97295.72;;;7.03;90.89
75008;BME280;63554;48.940;12.050;2022-12-24T09:11:10;97304.59;;;7.03;90.98
75008;BME280;63554;48.940;12.050;2022-12-24T09:15:13;97308.78;;;7.06;90.71
75008;BME280;63554;48.940;12.050;2022-12-24T09:19:18;97316.44;;;7.09;90.51
75008;BME280;63554;48.940;12.050;2022-12-24T09:23:21;97322.25;;;7.12;90.51
75008;BME280;63554;48.940;12.050;2022-12-24T09:27:23;97327.25;;;7.16;90.01
75008;BME280;63554;48.940;12.050;2022-12-24T09:31:26;97329.97;;;7.22;89.97
75008;BME280;63554;48.940;12.050;2022-12-24T09:35:31;97327.28;;;7.22;89.75
75008;BME280;63554;48.940;12.050;2022-12-24T09:39:33;97332.06;;;7.27;89.72
75008;BME280;63554;48.940;12.050;2022-12-24T09:43:36;97335.81;;;7.32;89.43
75008;BME280;63554;48.940;12.050;2022-12-24T09:47:43;97350.78;;;7.42;89.42
75008;BME280;63554;48.940;12.050;2022-12-24T09:51:51;97354.09;;;7.44;89.38
75008;BME280;63554;48.940;12.050;2022-12-24T09:55:57;97347.09;;;7.49;89.29
75008;BME280;63554;48.940;12.050;2022-12-24T10:00:01;97352.91;;;7.53;89.08
75008;BME280;63554;48.940;12.050;2022-12-24T10:04:09;97359.56;;;7.64;89.23
75008;BME280;63554;48.940;12.050;2022-12-24T10:08:19;97360.06;;;7.87;89.48
75008;BME280;63554;48.940;12.050;2022-12-24T10:12:30;97350.59;;;7.98;88.08
75008;BME280;63554;48.940;12.050;2022-12-24T10:16:42;97356.81;;;8.05;88.01
75008;BME280;63554;48.940;12.050;2022-12-24T10:20:55;97353.13;;;8.20;87.41
75008;BME280;63554;48.940;12.050;2022-12-24T10:25:08;97358.53;;;8.33;86.62
75008;BME280;63554;48.940;12.050;2022-12-24T10:29:17;97356.88;;;8.32;86.15
75008;BME280;63554;48.940;12.050;2022-12-24T10:33:28;97359.63;;;8.45;85.51
75008;BME280;63554;48.940;12.050;2022-12-24T10:37:33;97361.28;;;8.60;84.59
75008;BME280;63554;48.940;12.050;2022-12-24T10:41:37;97357.50;;;9.07;84.11
75008;BME280;63554;48.940;12.050;2022-12-24T10:45:43;97364.66;;;9.60;81.76
75008;BME280;63554;48.940;12.050;2022-12-24T10:49:52;97356.56;;;10.05;79.57
75008;BME280;63554;48.940;12.050;2022-12-24T10:53:59;97366.22;;;10.33;79.75
75008;BME280;63554;48.940;12.050;2022-12-24T10:58:07;97355.31;;;10.08;79.83
75008;BME280;63554;48.940;12.050;2022-12-24T11:02:25;97362.69;;;9.87;79.26
75008;BME280;63554;48.940;12.050;2022-12-24T11:06:28;97353.63;;;10.07;77.53
75008;BME280;63554;48.940;12.050;2022-12-24T11:10:32;97341.78;;;10.08;78.65
75008;BME280;63554;48.940;12.050;2022-12-24T11:14:38;97354.50;;;10.07;77.75
75008;BME280;63554;48.940;12.050;2022-12-24T11:18:44;97353.53;;;10.34;76.73
75008;BME280;63554;48.940;12.050;2022-12-24T11:22:51;97354.59;;;10.58;75.77
75008;BME280;63554;48.940;12.050;2022-12-24T11:27:22;97357.97;;;10.53;75.02
75008;BME280;63554;48.940;12.050;2022-12-24T11:31:27;97355.50;;;10.77;74.22
75008;BME280;63554;48.940;12.050;2022-12-24T11:35:38;97339.38;;;10.88;74.68
75008;BME280;63554;48.940;12.050;2022-12-24T11:39:45;97342.28;;;10.87;73.14
75008;BME280;63554;48.940;12.050;2022-12-24T11:43:50;97336.47;;;11.08;72.79
75008;BME280;63554;48.940;12.050;2022-12-24T11:47:55;97354.91;;;11.18;71.98
75008;BME280;63554;48.940;12.050;2022-12-24T11:52:07;97335.56;;;11.15;72.14
75008;BME280;63554;48.940;12.050;2022-12-24T11:56:20;97341.22;;;11.50;70.74
75008;BME280;63554;48.940;12.050;2022-12-24T12:00:26;97345.53;;;11.76;70.22
75008;BME280;63554;48.940;12.050;2022-12-24T12:04:33;97350.88;;;11.46;68.67
75008;BME280;63554;48.940;12.050;2022-12-24T12:08:38;97333.78;;;11.45;70.13
75008;BME280;63554;48.940;12.050;2022-12-24T12:12:44;97344.34;;;11.35;69.71
75008;BME280;63554;48.940;12.050;2022-12-24T12:16:49;97334.53;;;11.90;69.02
75008;BME280;63554;48.940;12.050;2022-12-24T12:21:08;97342.28;;;11.86;69.55
75008;BME280;63554;48.940;12.050;2022-12-24T12:25:20;97348.75;;;11.48;70.53
75008;BME280;63554;48.940;12.050;2022-12-24T12:29:26;97355.31;;;10.97;72.48
75008;BME280;63554;48.940;12.050;2022-12-24T12:33:36;97353.88;;;10.44;73.21
75008;BME280;63554;48.940;12.050;2022-12-24T12:37:43;97361.69;;;10.20;74.86
75008;BME280;63554;48.940;12.050;2022-12-24T12:41:55;97366.94;;;10.08;74.82
75008;BME280;63554;48.940;12.050;2022-12-24T12:46:06;97362.59;;;10.07;75.40
75008;BME280;63554;48.940;12.050;2022-12-24T12:50:16;97361.19;;;9.98;75.55
75008;BME280;63554;48.940;12.050;2022-12-24T12:54:34;97373.50;;;9.87;75.45
75008;BME280;63554;48.940;12.050;2022-12-24T12:58:43;97369.16;;;9.80;75.54
75008;BME280;63554;48.940;12.050;2022-12-24T13:03:03;97378.72;;;9.76;75.88
75008;BME280;63554;48.940;12.050;2022-12-24T13:12:03;97382.09;;;9.71;76.20
75008;BME280;63554;48.940;12.050;2022-12-24T13:16:24;97376.06;;;9.69;75.94
75008;BME280;63554;48.940;12.050;2022-12-24T13:20:41;97370.19;;;10.87;71.93
75008;BME280;63554;48.940;12.050;2022-12-24T13:24:48;97370.97;;;11.38;69.92
75008;BME280;63554;48.940;12.050;2022-12-24T13:28:54;97382.78;;;11.44;69.39
75008;BME280;63554;48.940;12.050;2022-12-24T13:32:56;97388.75;;;11.09;69.74
75008;BME280;63554;48.940;12.050;2022-12-24T13:37:11;97398.81;;;10.45;71.71
75008;BME280;63554;48.940;12.050;2022-12-24T13:45:56;97417.81;;;9.86;74.59
75008;BME280;63554;48.940;12.050;2022-12-24T13:50:17;97410.72;;;9.85;75.08
75008;BME280;63554;48.940;12.050;2022-12-24T13:54:24;97415.22;;;10.05;74.83
75008;BME280;63554;48.940;12.050;2022-12-24T13:58:29;97433.00;;;10.26;74.10
75008;BME280;63554;48.940;12.050;2022-12-24T14:02:36;97430.53;;;10.24;74.45
75008;BME280;63554;48.940;12.050;2022-12-24T14:06:41;97420.47;;;10.00;75.33
75008;BME280;63554;48.940;12.050;2022-12-24T14:10:57;97425.91;;;9.80;75.42
75008;BME280;63554;48.940;12.050;2022-12-24T14:19:40;97426.19;;;9.58;75.83
75008;BME280;63554;48.940;12.050;2022-12-24T14:23:50;97426.22;;;9.52;76.64
75008;BME280;63554;48.940;12.050;2022-12-24T14:27:58;97439.31;;;9.35;76.65
75008;BME280;63554;48.940;12.050;2022-12-24T14:32:07;97440.56;;;9.19;77.20
75008;BME280;63554;48.940;12.050;2022-12-24T14:36:17;97437.28;;;9.10;77.59
75008;BME280;63554;48.940;12.050;2022-12-24T14:40:25;97441.84;;;9.09;77.80
75008;BME280;63554;48.940;12.050;2022-12-24T14:44:35;97431.03;;;9.03;78.09
75008;BME280;63554;48.940;12.050;2022-12-24T14:48:46;97445.59;;;9.02;78.58
75008;BME280;63554;48.940;12.050;2022-12-24T14:52:57;97448.47;;;9.00;79.20
75008;BME280;63554;48.940;12.050;2022-12-24T14:57:27;97460.13;;;8.94;79.39
75008;BME280;63554;48.940;12.050;2022-12-24T15:01:31;97468.59;;;8.91;80.94
75008;BME280;63554;48.940;12.050;2022-12-24T15:05:34;97468.81;;;8.89;80.96
75008;BME280;63554;48.940;12.050;2022-12-24T15:09:40;97477.53;;;8.91;82.53
75008;BME280;63554;48.940;12.050;2022-12-24T15:13:44;97486.06;;;8.88;82.07
75008;BME280;63554;48.940;12.050;2022-12-24T15:17:49;97485.44;;;8.86;82.18
75008;BME280;63554;48.940;12.050;2022-12-24T15:21:53;97490.19;;;8.84;82.41
75008;BME280;63554;48.940;12.050;2022-12-24T15:26:25;97477.94;;;8.75;82.66
75008;BME280;63554;48.940;12.050;2022-12-24T15:30:29;97476.91;;;8.76;83.10
75008;BME280;63554;48.940;12.050;2022-12-24T15:34:35;97479.38;;;8.71;83.38
75008;BME280;63554;48.940;12.050;2022-12-24T15:38:39;97473.13;;;8.64;83.68
75008;BME280;63554;48.940;12.050;2022-12-24T15:42:45;97471.31;;;8.84;87.55
75008;BME280;63554;48.940;12.050;2022-12-24T15:46:47;97475.25;;;9.15;89.26
75008;BME280;63554;48.940;12.050;2022-12-24T15:50:52;97474.84;;;9.05;86.39
75008;BME280;63554;48.940;12.050;2022-12-24T15:54:56;97469.03;;;8.88;85.13
75008;BME280;63554;48.940;12.050;2022-12-24T15:59:31;97473.97;;;8.71;84.46
75008;BME280;63554;48.940;12.050;2022-12-24T16:03:37;97477.06;;;8.55;84.11
75008;BME280;63554;48.940;12.050;2022-12-24T16:07:40;97488.19;;;8.38;84.12
75008;BME280;63554;48.940;12.050;2022-12-24T16:11:57;97492.06;;;8.22;84.34
75008;BME280;63554;48.940;12.050;2022-12-24T16:16:08;97493.69;;;8.10;84.79
75008;BME280;63554;48.940;12.050;2022-12-24T16:20:16;97497.56;;;8.01;85.01
75008;BME280;63554;48.940;12.050;2022-12-24T16:24:21;97496.06;;;7.91;85.37
75008;BME280;63554;48.940;12.050;2022-12-24T16:28:25;97504.66;;;7.73;85.78
75008;BME280;63554;48.940;12.050;2022-12-24T16:32:31;97517.41;;;7.58;86.39
75008;BME280;63554;48.940;12.050;2022-12-24T16:36:35;97521.03;;;7.44;86.73
75008;BME280;63554;48.940;12.050;2022-12-24T16:40:37;97518.09;;;7.39;87.41
75008;BME280;63554;48.940;12.050;2022-12-24T16:44:40;97521.56;;;7.32;87.31
75008;BME280;63554;48.940;12.050;2022-12-24T16:48:46;97522.59;;;7.31;87.87
75008;BME280;63554;48.940;12.050;2022-12-24T16:52:49;97532.09;;;7.27;87.84
75008;BME280;63554;48.940;12.050;2022-12-24T16:56:52;97534.78;;;7.27;87.71
75008;BME280;63554;48.940;12.050;2022-12-24T17:00:55;97543.06;;;7.26;87.81
75008;BME280;63554;48.940;12.050;2022-12-24T17:05:00;97544.94;;;7.25;88.09
75008;BME280;63554;48.940;12.050;2022-12-24T17:09:03;97559.03;;;7.27;88.16
75008;BME280;63554;48.940;12.050;2022-12-24T17:13:06;97556.09;;;7.29;88.23
75008;BME280;63554;48.940;12.050;2022-12-24T17:17:18;97564.00;;;7.30;88.00
75008;BME280;63554;48.940;12.050;2022-12-24T17:21:22;97558.81;;;7.29;88.24
75008;BME280;63554;48.940;12.050;2022-12-24T17:25:25;97562.72;;;7.26;88.25
75008;BME280;63554;48.940;12.050;2022-12-24T17:29:28;97573.50;;;7.26;88.37
75008;BME280;63554;48.940;12.050;2022-12-24T17:33:30;97568.69;;;7.22;88.24
75008;BME280;63554;48.940;12.050;2022-12-24T17:37:34;97579.28;;;7.23;88.34
75008;BME280;63554;48.940;12.050;2022-12-24T17:41:37;97578.41;;;7.23;88.29
75008;BME280;63554;48.940;12.050;2022-12-24T17:45:40;97570.94;;;7.18;88.66
75008;BME280;63554;48.940;12.050;2022-12-24T17:49:43;97571.13;;;7.17;88.52
75008;BME280;63554;48.940;12.050;2022-12-24T17:53:48;97563.00;;;7.10;88.78
75008;BME280;63554;48.940;12.050;2022-12-24T17:57:50;97571.63;;;7.05;89.33
75008;BME280;63554;48.940;12.050;2022-12-24T18:01:53;97572.03;;;7.02;89.53
75008;BME280;63554;48.940;12.050;2022-12-24T18:06:02;97574.06;;;7.00;89.37
75008;BME280;63554;48.940;12.050;2022-12-24T18:10:08;97577.59;;;7.01;89.28
75008;BME280;63554;48.940;12.050;2022-12-24T18:14:11;97586.13;;;7.04;89.49
75008;BME280;63554;48.940;12.050;2022-12-24T18:18:15;97579.06;;;7.03;89.60
75008;BME280;63554;48.940;12.050;2022-12-24T18:22:18;97579.91;;;7.04;89.78
75008;BME280;63554;48.940;12.050;2022-12-24T18:26:23;97592.19;;;7.13;90.08
75008;BME280;63554;48.940;12.050;2022-12-24T18:30:26;97589.72;;;7.11;89.51
75008;BME280;63554;48.940;12.050;2022-12-24T18:34:29;97598.81;;;7.10;89.41
75008;BME280;63554;48.940;12.050;2022-12-24T18:38:32;97615.13;;;7.09;89.16
75008;BME280;63554;48.940;12.050;2022-12-24T18:42:39;97613.84;;;7.05;89.05
75008;BME280;63554;48.940;12.050;2022-12-24T18:46:41;97610.53;;;7.03;89.01
75008;BME280;63554;48.940;12.050;2022-12-24T18:50:53;97617.78;;;7.02;88.61
75008;BME280;63554;48.940;12.050;2022-12-24T18:54:56;97621.66;;;7.00;88.93
75008;BME280;63554;48.940;12.050;2022-12-24T18:59:01;97621.22;;;6.96;88.54
75008;BME280;63554;48.940;12.050;2022-12-24T19:03:04;97626.16;;;6.92;88.64
75008;BME280;63554;48.940;12.050;2022-12-24T19:07:06;97623.28;;;6.94;88.70
75008;BME280;63554;48.940;12.050;2022-12-24T19:11:09;97611.00;;;6.91;88.43
75008;BME280;63554;48.940;12.050;2022-12-24T19:15:13;97617.63;;;6.89;88.36
75008;BME280;63554;48.940;12.050;2022-12-24T19:19:16;97614.94;;;6.89;88.53
75008;BME280;63554;48.940;12.050;2022-12-24T19:23:24;97623.19;;;6.87;88.62
75008;BME280;63554;48.940;12.050;2022-12-24T19:27:26;97635.63;;;6.88;89.26
75008;BME280;63554;48.940;12.050;2022-12-24T19:31:30;97631.91;;;6.89;88.50
75008;BME280;63554;48.940;12.050;2022-12-24T19:35:33;97644.34;;;6.90;88.19
75008;BME280;63554;48.940;12.050;2022-12-24T19:39:36;97639.31;;;6.87;88.20
75008;BME280;63554;48.940;12.050;2022-12-24T19:43:40;97627.91;;;6.85;88.34
75008;BME280;63554;48.940;12.050;2022-12-24T19:47:45;97620.25;;;6.82;88.04
75008;BME280;63554;48.940;12.050;2022-12-24T19:51:48;97624.53;;;6.77;87.97
75008;BME280;63554;48.940;12.050;2022-12-24T19:55:50;97614.78;;;6.76;88.08
75008;BME280;63554;48.940;12.050;2022-12-24T19:59:53;97614.94;;;6.74;88.44
75008;BME280;63554;48.940;12.050;2022-12-24T20:03:57;97610.34;;;6.68;88.57
75008;BME280;63554;48.940;12.050;2022-12-24T20:08:00;97621.72;;;6.70;88.64
75008;BME280;63554;48.940;12.050;2022-12-24T20:12:03;97635.81;;;6.72;88.26
75008;BME280;63554;48.940;12.050;2022-12-24T20:16:08;97633.13;;;6.72;88.02
75008;BME280;63554;48.940;12.050;2022-12-24T20:20:13;97628.63;;;6.72;87.98
75008;BME280;63554;48.940;12.050;2022-12-24T20:24:16;97620.53;;;6.72;88.04
75008;BME280;63554;48.940;12.050;2022-12-24T20:28:19;97633.78;;;6.74;87.91
75008;BME280;63554;48.940;12.050;2022-12-24T20:32:21;97640.38;;;6.71;88.04
75008;BME280;63554;48.940;12.050;2022-12-24T20:36:27;97648.63;;;6.70;88.41
75008;BME280;63554;48.940;12.050;2022-12-24T20:40:30;97650.84;;;6.66;88.19
75008;BME280;63554;48.940;12.050;2022-12-24T20:44:33;97669.88;;;6.65;88.25
75008;BME280;63554;48.940;12.050;2022-12-24T20:48:35;97650.03;;;6.66;88.32
75008;BME280;63554;48.940;12.050;2022-12-24T20:52:40;97655.88;;;6.69;88.10
75008;BME280;63554;48.940;12.050;2022-12-24T20:56:42;97659.78;;;6.67;88.26
75008;BME280;63554;48.940;12.050;2022-12-24T21:00:58;97664.13;;;6.68;87.95
75008;BME280;63554;48.940;12.050;2022-12-24T21:05:00;97656.06;;;6.68;88.13
75008;BME280;63554;48.940;12.050;2022-12-24T21:09:05;97665.81;;;6.69;88.06
75008;BME280;63554;48.940;12.050;2022-12-24T21:13:08;97664.97;;;6.68;88.43
75008;BME280;63554;48.940;12.050;2022-12-24T21:17:11;97668.09;;;6.72;88.42
75008;BME280;63554;48.940;12.050;2022-12-24T21:21:16;97658.09;;;6.66;88.39
75008;BME280;63554;48.940;12.050;2022-12-24T21:25:20;97660.78;;;6.66;88.27
75008;BME280;63554;48.940;12.050;2022-12-24T21:29:23;97667.84;;;6.67;87.95
75008;BME280;63554;48.940;12.050;2022-12-24T21:33:26;97667.84;;;6.67;88.54
75008;BME280;63554;48.940;12.050;2022-12-24T21:37:36;97670.34;;;6.68;88.04
75008;BME280;63554;48.940;12.050;2022-12-24T21:41:41;97661.44;;;6.68;88.05
75008;BME280;63554;48.940;12.050;2022-12-24T21:45:43;97666.16;;;6.66;87.92
75008;BME280;63554;48.940;12.050;2022-12-24T21:49:50;97670.53;;;6.67;88.02
75008;BME280;63554;48.940;12.050;2022-12-24T21:54:10;97685.81;;;6.66;88.36